KEBS/EBS METAR and TAF weather

Enter ICAO airport designator
Station Type Date Time Source
KEBS METAR 2019/08/24 08:35 UTC NOAA

KEBS 240835Z AUTO 11005KT 10SM CLR 14/14 A3020 RMK AO2


Station Type Date Time Source
KEBS Decoded METAR 2019/08/24 08:35 UTC NOAA

Station name not available
Aug 24, 2019 - 04:35 AM EDT / 2019.08.24 0835 UTC
Wind: from the ESE (110 degrees) at 6 MPH (5 KT):0
Visibility: 10 mile(s):0
Sky conditions: clear
Temperature: 57 F (14 C)
Dew Point: 57 F (14 C)
Relative Humidity: 100%
Pressure (altimeter): 30.2 in. Hg (1022 hPa)
ob: KEBS 240835Z AUTO 11005KT 10SM CLR 14/14 A3020 RMK AO2
cycle: 8

Station Type Date Time Source
KEBS TAF UTC NOAA

Error!

Example: see airport list